Time;durP1;ratioP1;P1;durP2;ratioP2;P2;SDS_P1;SDS_P2;PMS_P1;PMS_P2;Temp;Humidity;BMP_temperature;BMP_pressure;BME280_temperature;BME280_humidity;BME280_pressure;Samples;Min_cycle;Max_cycle;Signal;HPM_P1;HPM_P2
2022/04/29 00:00:39;;;;;;;4.17;2.67;;;6.30;99.90;6.10;101839.00;;;;4989311;28;88830;-70
2022/04/29 00:03:10;;;;;;;7.57;2.87;;;6.20;99.90;6.00;101847.00;;;;4981739;28;87891;-70
2022/04/29 00:05:37;;;;;;;2.77;2.50;;;6.20;99.90;5.90;101840.00;;;;4994247;28;88005;-70
2022/04/29 00:08:05;;;;;;;3.33;2.33;;;6.10;99.90;5.90;101850.00;;;;4994286;28;100552;-71
2022/04/29 00:10:31;;;;;;;2.97;2.43;;;6.10;99.90;5.80;101842.00;;;;4993228;28;87637;-70
2022/04/29 00:12:57;;;;;;;3.30;2.80;;;6.00;99.90;5.80;101840.00;;;;4987584;28;87625;-70
2022/04/29 00:15:23;;;;;;;4.37;2.87;;;6.20;99.90;5.70;101847.00;;;;4974735;28;88687;-71
2022/04/29 00:17:49;;;;;;;7.27;2.10;;;5.90;99.90;5.70;101845.00;;;;4974857;28;88298;-71
2022/04/29 00:20:15;;;;;;;7.20;2.87;;;5.90;99.90;5.70;101847.00;;;;4981044;28;87947;-71
2022/04/29 00:22:44;;;;;;;5.30;3.43;;;5.90;99.90;5.70;101837.00;;;;4990521;28;88036;-71
2022/04/29 00:25:16;;;;;;;3.30;2.50;;;5.80;99.90;5.60;101829.00;;;;4975748;28;91184;-70
2022/04/29 00:27:42;;;;;;;2.20;2.00;;;5.80;99.90;5.60;101828.00;;;;4968544;28;116799;-70
2022/04/29 00:30:11;;;;;;;3.70;2.50;;;5.80;99.90;5.60;101840.00;;;;4973374;28;87836;-70
2022/04/29 00:32:38;;;;;;;3.90;2.23;;;5.70;99.90;5.50;101827.00;;;;4960460;28;87628;-71
2022/04/29 00:35:08;;;;;;;6.07;2.43;;;5.70;99.90;5.60;101827.00;;;;4978109;28;107392;-70
2022/04/29 00:37:47;;;;;;;4.60;2.20;;;5.70;99.90;5.50;101832.00;;;;4977657;28;87688;-71
2022/04/29 00:40:19;;;;;;;2.83;2.50;;;5.70;99.90;5.50;101823.00;;;;4977975;28;91791;-70
2022/04/29 00:42:46;;;;;;;6.87;2.53;;;5.70;99.90;5.50;101829.00;;;;4977462;28;86953;-71
2022/04/29 00:45:14;;;;;;;3.47;3.00;;;5.60;99.90;5.40;101830.00;;;;4992217;28;87930;-70
2022/04/29 00:47:40;;;;;;;6.27;2.73;;;5.60;99.90;5.30;101827.00;;;;4987050;28;87962;-71
2022/04/29 00:50:07;;;;;;;4.73;2.97;;;5.50;99.90;5.30;101831.00;;;;4995837;28;88854;-70
2022/04/29 00:52:36;;;;;;;3.73;2.40;;;5.40;99.90;5.20;101829.00;;;;4996646;27;87831;-70
2022/04/29 00:55:08;;;;;;;5.27;2.50;;;5.40;99.90;5.20;101823.00;;;;4992837;28;88772;-71
2022/04/29 00:57:41;;;;;;;2.90;2.17;;;5.40;99.90;5.20;101822.00;;;;4991490;28;101528;-70
2022/04/29 01:00:11;;;;;;;3.77;2.60;;;5.40;99.90;5.20;101822.00;;;;4978441;28;87987;-71
2022/04/29 01:02:43;;;;;;;3.67;2.50;;;5.40;99.90;5.10;101821.00;;;;4976210;28;88042;-71
2022/04/29 01:05:13;;;;;;;2.57;2.20;;;5.30;99.90;5.10;101812.00;;;;4959125;28;90549;-69
2022/04/29 01:07:41;;;;;;;3.13;2.83;;;5.30;99.90;5.10;101813.00;;;;4977642;28;89055;-70
2022/04/29 01:10:10;;;;;;;3.50;2.50;;;5.30;99.90;5.10;101808.00;;;;4992969;28;87757;-70
2022/04/29 01:12:38;;;;;;;3.50;2.73;;;5.30;99.90;5.10;101798.00;;;;4974864;28;88148;-70
2022/04/29 01:15:14;;;;;;;4.47;3.00;;;5.50;99.90;5.10;101809.00;;;;4957750;28;89640;-69
2022/04/29 01:17:45;;;;;;;3.53;2.30;;;5.30;99.90;5.10;101794.00;;;;4954479;28;90818;-71
2022/04/29 01:20:18;;;;;;;2.77;2.57;;;5.30;99.90;5.00;101794.00;;;;4964890;28;87621;-70
2022/04/29 01:22:44;;;;;;;3.00;2.70;;;5.20;99.90;4.90;101801.00;;;;4977558;28;100881;-70
2022/04/29 01:25:11;;;;;;;2.87;2.13;;;5.20;99.90;4.90;101797.00;;;;4996639;28;111776;-70
2022/04/29 01:27:38;;;;;;;8.23;2.83;;;5.10;99.90;4.90;101803.00;;;;4987032;28;107042;-70
2022/04/29 01:30:11;;;;;;;3.10;2.40;;;5.10;99.90;4.80;101794.00;;;;4977147;28;103424;-70
2022/04/29 01:32:39;;;;;;;3.20;2.30;;;5.10;99.90;4.80;101798.00;;;;4977525;28;86918;-70
2022/04/29 01:35:08;;;;;;;4.33;2.27;;;5.00;99.90;4.70;101803.00;;;;4995234;28;89192;-70
2022/04/29 01:37:34;;;;;;;3.27;2.63;;;4.90;99.90;4.70;101801.00;;;;4995220;28;88221;-70
2022/04/29 01:40:00;;;;;;;3.13;2.47;;;4.90;99.90;4.60;101807.00;;;;4996647;28;101442;-70
2022/04/29 01:42:26;;;;;;;4.63;2.70;;;4.90;99.90;4.60;101795.00;;;;4982789;28;97228;-70
2022/04/29 01:44:52;;;;;;;2.87;2.53;;;4.70;99.90;4.50;101799.00;;;;4977835;28;90772;-70
2022/04/29 01:47:18;;;;;;;4.77;3.13;;;4.70;99.90;4.40;101783.00;;;;4975746;28;111537;-70
2022/04/29 01:49:44;;;;;;;4.40;2.87;;;4.60;99.90;4.40;101789.00;;;;4977140;28;87795;-70
2022/04/29 01:52:10;;;;;;;2.43;2.20;;;4.60;99.90;4.30;101803.00;;;;4976628;28;109024;-70
2022/04/29 01:54:36;;;;;;;2.90;2.10;;;4.60;99.90;4.30;101793.00;;;;4990693;28;117862;-71
2022/04/29 01:57:03;;;;;;;3.50;3.17;;;4.50;99.90;4.30;101788.00;;;;4981488;28;117019;-71
2022/04/29 01:59:30;;;;;;;2.00;1.90;;;4.50;99.90;4.30;101790.00;;;;4976337;28;99712;-70
2022/04/29 02:02:00;;;;;;;2.37;2.17;;;4.50;99.90;4.30;101787.00;;;;4976478;28;102249;-71
2022/04/29 02:04:26;;;;;;;2.57;2.37;;;4.50;99.90;4.20;101779.00;;;;4976244;28;89402;-71
2022/04/29 02:06:51;;;;;;;3.80;2.50;;;4.40;99.90;4.10;101797.00;;;;4977178;28;94061;-70
2022/04/29 02:09:17;;;;;;;4.10;2.40;;;4.40;99.90;4.10;101784.00;;;;4976409;28;89713;-71
2022/04/29 02:12:03;;;;;;;2.73;2.30;;;4.30;99.90;4.10;101787.00;;;;4991045;28;96542;-71
2022/04/29 02:14:29;;;;;;;3.27;2.23;;;4.30;99.90;4.10;101788.00;;;;4996736;28;88296;-71
2022/04/29 02:16:55;;;;;;;3.87;2.33;;;4.30;99.90;4.00;101792.00;;;;4993884;28;88237;-70
2022/04/29 02:19:22;;;;;;;3.63;2.87;;;4.30;99.90;4.00;101784.00;;;;4996060;28;87780;-71
2022/04/29 02:21:48;;;;;;;2.40;1.77;;;4.20;99.90;4.00;101779.00;;;;4976725;28;86919;-71
2022/04/29 02:24:15;;;;;;;3.53;2.80;;;4.20;99.90;4.00;101793.00;;;;4974038;28;104973;-71
2022/04/29 02:26:41;;;;;;;2.67;2.23;;;4.50;99.90;3.90;101787.00;;;;4980290;28;104629;-71
2022/04/29 02:29:07;;;;;;;5.03;2.47;;;4.10;99.90;3.80;101789.00;;;;4976025;27;88686;-71
2022/04/29 02:31:33;;;;;;;5.20;2.90;;;4.10;99.90;3.80;101780.00;;;;4990918;28;89080;-71
2022/04/29 02:33:59;;;;;;;5.20;2.90;;;4.00;99.90;3.70;101783.00;;;;4975695;28;89203;-70
2022/04/29 02:36:25;;;;;;;3.27;2.83;;;3.90;99.90;3.60;101783.00;;;;4978469;28;117589;-71
2022/04/29 02:38:51;;;;;;;3.63;2.93;;;3.90;99.90;3.60;101782.00;;;;4994957;28;110478;-70
2022/04/29 02:41:17;;;;;;;3.27;2.37;;;3.80;99.90;3.60;101786.00;;;;4995510;28;108282;-70
2022/04/29 02:43:43;;;;;;;3.37;3.00;;;3.80;99.90;3.60;101780.00;;;;4986338;28;89127;-70
2022/04/29 02:46:09;;;;;;;5.47;3.10;;;3.80;99.90;3.50;101787.00;;;;4976946;28;88536;-71
2022/04/29 02:48:34;;;;;;;3.43;2.77;;;3.80;99.90;3.50;101777.00;;;;4975942;28;92134;-71
2022/04/29 02:51:01;;;;;;;4.70;4.23;;;3.70;99.90;3.50;101772.00;;;;4975388;28;99804;-71
2022/04/29 02:53:27;;;;;;;3.00;2.70;;;3.70;99.90;3.40;101768.00;;;;4975498;28;89650;-70
2022/04/29 02:55:53;;;;;;;3.87;2.90;;;3.70;99.90;3.40;101767.00;;;;4975506;28;89994;-70
2022/04/29 02:58:19;;;;;;;3.67;3.37;;;3.70;99.90;3.40;101775.00;;;;4987525;28;110309;-71
2022/04/29 03:00:44;;;;;;;5.93;2.70;;;3.60;99.90;3.40;101778.00;;;;4974838;28;108662;-71
2022/04/29 03:03:10;;;;;;;2.13;2.00;;;3.60;99.90;3.30;101768.00;;;;4974691;28;118439;-71
2022/04/29 03:05:36;;;;;;;4.23;2.87;;;3.60;99.90;3.30;101767.00;;;;4974852;28;115795;-71
2022/04/29 03:08:01;;;;;;;2.60;2.40;;;3.60;99.90;3.30;101774.00;;;;4977731;28;110264;-71
2022/04/29 03:10:27;;;;;;;5.70;3.10;;;3.50;99.90;3.30;101759.00;;;;4976251;28;87037;-71
2022/04/29 03:12:53;;;;;;;6.50;2.43;;;3.50;99.90;3.20;101767.00;;;;4975735;28;87936;-71
2022/04/29 03:15:28;;;;;;;3.23;2.93;;;4.00;99.90;3.20;101769.00;;;;4976243;28;87724;-70
2022/04/29 03:20:40;;;;;;;6.67;2.57;;;3.40;99.90;3.10;101771.00;;;;4982870;28;87720;-71
2022/04/29 03:23:07;;;;;;;2.97;2.43;;;3.70;99.90;3.10;101768.00;;;;4973728;28;90936;-71
2022/04/29 03:25:34;;;;;;;4.20;2.97;;;3.30;99.90;3.10;101768.00;;;;4975738;28;87909;-71
2022/04/29 03:28:07;;;;;;;3.97;3.00;;;3.30;99.90;3.00;101765.00;;;;4979363;28;89387;-71
2022/04/29 03:30:34;;;;;;;2.73;2.53;;;3.30;99.90;3.10;101756.00;;;;4976899;28;87942;-71
2022/04/29 03:33:05;;;;;;;1.87;1.70;;;3.30;99.90;3.00;101772.00;;;;4975426;28;102176;-71
2022/04/29 03:35:32;;;;;;;3.43;2.73;;;3.30;99.90;3.00;101763.00;;;;4975779;28;103968;-71
2022/04/29 03:38:26;;;;;;;5.77;2.63;;;3.30;99.90;3.00;101773.00;;;;4988308;28;87723;-71
2022/04/29 03:40:53;;;;;;;7.30;4.57;;;3.20;99.90;3.00;101772.00;;;;4995180;28;94931;-70
2022/04/29 03:43:19;;;;;;;5.03;3.27;;;3.20;99.90;2.90;101784.00;;;;4993293;28;90237;-71
2022/04/29 03:45:48;;;;;;;11.23;4.40;;;3.10;99.90;2.80;101776.00;;;;4992272;28;104202;-71
2022/04/29 03:48:16;;;;;;;21.87;10.63;;;3.10;99.90;2.80;101778.00;;;;4970551;28;110449;-71
2022/04/29 03:50:42;;;;;;;11.47;5.87;;;3.00;99.90;2.80;101778.00;;;;4974432;28;91141;-71
2022/04/29 03:53:08;;;;;;;13.40;9.57;;;3.00;99.90;2.70;101774.00;;;;4974360;28;118950;-70
2022/04/29 03:55:35;;;;;;;8.23;5.93;;;3.00;99.90;2.70;101774.00;;;;4988767;28;115579;-71
2022/04/29 03:58:02;;;;;;;6.87;5.13;;;2.90;99.90;2.70;101779.00;;;;4975196;28;88012;-70
2022/04/29 04:00:33;;;;;;;7.47;4.50;;;2.90;99.90;2.70;101777.00;;;;4976004;28;87119;-70
2022/04/29 04:03:06;;;;;;;6.30;4.53;;;2.90;99.90;2.70;101782.00;;;;4974940;28;87938;-71
2022/04/29 04:05:33;;;;;;;4.27;3.33;;;2.90;99.90;2.70;101778.00;;;;4975456;28;87736;-71
2022/04/29 04:07:58;;;;;;;5.83;4.73;;;2.90;99.90;2.70;101768.00;;;;4974955;28;88640;-70
2022/04/29 04:10:24;;;;;;;4.13;3.70;;;3.40;99.90;2.70;101767.00;;;;4974862;28;108824;-71
2022/04/29 04:12:51;;;;;;;8.00;4.40;;;3.00;99.90;2.70;101773.00;;;;4974608;28;88916;-71
2022/04/29 04:15:20;;;;;;;7.80;4.50;;;3.00;99.90;2.70;101767.00;;;;4973230;28;88062;-70
2022/04/29 04:17:46;;;;;;;4.67;3.27;;;2.90;99.90;2.70;101767.00;;;;4978689;28;98824;-70
2022/04/29 04:20:14;;;;;;;14.37;4.53;;;3.00;99.90;2.70;101782.00;;;;4969476;28;87592;-70
2022/04/29 04:22:44;;;;;;;5.30;2.90;;;3.00;99.90;2.80;101783.00;;;;4994940;28;87634;-70
2022/04/29 04:25:12;;;;;;;6.03;3.33;;;3.00;99.90;2.90;101782.00;;;;4994578;28;116476;-70
2022/04/29 04:27:58;;;;;;;7.10;3.97;;;3.10;99.90;2.90;101793.00;;;;4978529;28;87855;-70
2022/04/29 04:30:23;;;;;;;10.27;6.20;;;3.10;99.90;3.00;101791.00;;;;4954168;28;106289;-70
2022/04/29 04:32:49;;;;;;;7.83;4.87;;;3.50;99.90;3.10;101785.00;;;;4953159;28;117835;-70
2022/04/29 04:35:15;;;;;;;5.57;3.70;;;3.30;99.90;3.20;101793.00;;;;4953663;28;118832;-70
2022/04/29 04:37:41;;;;;;;9.93;4.13;;;3.40;99.90;3.30;101791.00;;;;4972848;28;88100;-70
2022/04/29 04:40:08;;;;;;;3.90;3.10;;;3.50;99.90;3.50;101797.00;;;;4994268;28;109233;-71
2022/04/29 04:42:43;;;;;;;5.63;4.03;;;3.60;99.90;3.70;101803.00;;;;4994343;28;88137;-70
2022/04/29 04:45:09;;;;;;;6.17;4.67;;;4.30;99.90;3.80;101800.00;;;;4969444;28;87948;-70
2022/04/29 04:47:35;;;;;;;6.10;4.87;;;4.00;99.90;4.00;101794.00;;;;4962310;28;104767;-70
2022/04/29 04:50:01;;;;;;;4.70;3.23;;;4.10;99.90;4.10;101794.00;;;;4974267;28;109010;-70
2022/04/29 04:52:27;;;;;;;5.43;4.07;;;4.60;99.90;4.30;101809.00;;;;4974094;28;116843;-70
2022/04/29 04:54:53;;;;;;;5.07;4.10;;;4.40;99.90;4.50;101792.00;;;;4988835;28;103106;-71
2022/04/29 04:57:19;;;;;;;6.27;3.90;;;4.60;99.90;4.70;101813.00;;;;4978269;28;88809;-70
2022/04/29 04:59:45;;;;;;;6.20;5.10;;;4.80;99.90;4.90;101822.00;;;;4985056;28;87744;-70
2022/04/29 05:02:10;;;;;;;10.00;5.90;;;5.00;99.90;5.10;101823.00;;;;4993499;28;117139;-70
2022/04/29 05:04:36;;;;;;;8.40;5.73;;;5.20;99.90;5.30;101821.00;;;;4994311;28;117170;-70
2022/04/29 05:07:03;;;;;;;6.83;6.03;;;5.80;99.90;5.50;101819.00;;;;4987735;28;89136;-70
2022/04/29 05:09:29;;;;;;;8.57;6.23;;;5.50;99.90;5.70;101832.00;;;;4975676;28;87981;-70
2022/04/29 05:11:55;;;;;;;6.43;5.77;;;5.60;99.90;5.80;101828.00;;;;4976345;28;116764;-70
2022/04/29 05:14:21;;;;;;;6.20;5.53;;;5.90;99.90;6.00;101839.00;;;;4993265;28;88235;-70
2022/04/29 05:16:47;;;;;;;7.97;5.80;;;6.00;99.90;6.20;101824.00;;;;4977565;28;87831;-70
2022/04/29 05:19:12;;;;;;;10.20;5.73;;;6.60;99.90;6.40;101824.00;;;;4996773;28;108681;-70
2022/04/29 05:21:38;;;;;;;9.03;5.93;;;6.40;99.90;6.60;101831.00;;;;4976545;28;116829;-70
2022/04/29 05:24:04;;;;;;;8.40;5.70;;;6.60;99.90;6.80;101842.00;;;;4977083;28;118105;-71
2022/04/29 05:26:30;;;;;;;5.70;4.80;;;6.80;99.90;7.00;101841.00;;;;4976628;28;99665;-70
2022/04/29 05:28:55;;;;;;;8.83;4.97;;;7.20;99.90;7.20;101835.00;;;;4992689;28;109947;-70
2022/04/29 05:31:21;;;;;;;5.67;5.07;;;7.20;99.90;7.40;101834.00;;;;4996399;28;119265;-70
2022/04/29 05:33:47;;;;;;;8.07;5.53;;;7.40;99.90;7.50;101829.00;;;;4995985;28;117982;-70
2022/04/29 05:36:13;;;;;;;9.70;5.57;;;7.50;99.90;7.70;101841.00;;;;4996932;28;111895;-70
2022/04/29 05:44:09;;;;;;;6.57;4.77;;;8.10;99.90;8.30;101851.00;;;;4974785;28;87541;-71
2022/04/29 05:46:35;;;;;;;11.47;4.77;;;8.30;99.90;8.50;101848.00;;;;4974341;28;88776;-70
2022/04/29 05:49:02;;;;;;;8.57;4.27;;;8.50;99.90;8.70;101854.00;;;;4993794;28;87546;-71
2022/04/29 05:51:28;;;;;;;7.00;4.40;;;8.70;99.90;8.80;101863.00;;;;4996934;28;88092;-71
2022/04/29 05:53:53;;;;;;;9.37;4.80;;;8.80;99.90;9.00;101871.00;;;;4993951;28;116098;-70
2022/04/29 05:56:19;;;;;;;6.30;3.70;;;9.00;99.90;9.20;101870.00;;;;4978611;28;87715;-70
2022/04/29 05:58:45;;;;;;;5.53;4.23;;;8.80;99.90;9.30;101875.00;;;;4982217;28;109044;-70
2022/04/29 06:01:11;;;;;;;5.70;4.43;;;9.30;99.90;9.40;101869.00;;;;4976957;28;88147;-70
2022/04/29 06:03:37;;;;;;;7.00;5.30;;;9.40;99.90;9.50;101872.00;;;;4976879;28;108486;-70
2022/04/29 06:06:03;;;;;;;6.70;4.77;;;9.50;99.90;9.50;101870.00;;;;4975075;28;87919;-69
2022/04/29 06:08:29;;;;;;;6.23;5.00;;;9.60;99.90;9.60;101873.00;;;;4979465;28;100212;-69
2022/04/29 06:10:54;;;;;;;7.87;5.00;;;9.60;99.90;9.70;101871.00;;;;4996030;28;118046;-69
2022/04/29 06:13:20;;;;;;;6.83;5.20;;;9.70;99.90;9.70;101876.00;;;;4996148;28;108886;-69
2022/04/29 06:15:46;;;;;;;7.43;4.30;;;9.80;99.90;9.80;101870.00;;;;4996104;28;111189;-69
2022/04/29 06:18:12;;;;;;;6.00;3.97;;;9.80;99.90;9.90;101870.00;;;;4997499;28;87762;-69
2022/04/29 06:20:37;;;;;;;7.40;4.20;;;9.90;99.90;10.00;101863.00;;;;4982249;28;103501;-69
2022/04/29 06:23:03;;;;;;;13.20;5.43;;;10.00;99.90;10.20;101861.00;;;;4976409;28;102118;-69
2022/04/29 06:25:29;;;;;;;7.97;4.43;;;10.10;99.90;10.30;101862.00;;;;4977503;28;88116;-69
2022/04/29 06:27:55;;;;;;;4.67;3.83;;;10.90;99.90;10.40;101858.00;;;;4967028;28;87079;-69
2022/04/29 06:30:20;;;;;;;4.97;4.03;;;10.30;99.90;10.60;101875.00;;;;4963281;28;117803;-70
2022/04/29 06:32:46;;;;;;;4.43;4.00;;;10.50;99.90;10.90;101878.00;;;;4996557;28;98641;-69
2022/04/29 06:35:12;;;;;;;6.77;4.40;;;10.80;99.90;11.20;101877.00;;;;4995032;28;88650;-68
2022/04/29 06:37:38;;;;;;;6.77;4.17;;;11.00;99.90;11.50;101870.00;;;;4994234;28;87573;-69
2022/04/29 06:40:05;;;;;;;6.70;4.27;;;11.30;99.90;11.80;101873.00;;;;4996754;28;88551;-69
2022/04/29 06:42:31;;;;;;;5.37;3.80;;;11.60;99.90;12.10;101880.00;;;;4976331;28;87863;-69
2022/04/29 06:44:57;;;;;;;6.57;4.57;;;11.90;99.90;12.30;101872.00;;;;4991699;28;87751;-69
2022/04/29 06:47:23;;;;;;;6.13;4.00;;;12.20;99.90;12.60;101876.00;;;;4975908;28;108238;-68
2022/04/29 06:49:48;;;;;;;4.90;3.73;;;12.40;99.90;12.70;101872.00;;;;4975592;28;117195;-69
2022/04/29 06:52:14;;;;;;;3.57;2.90;;;12.60;99.90;12.80;101873.00;;;;4989171;28;88318;-69
2022/04/29 06:54:40;;;;;;;5.40;3.57;;;12.80;98.80;13.00;101880.00;;;;4995704;28;110111;-69
2022/04/29 06:57:06;;;;;;;6.30;3.97;;;12.90;97.50;13.10;101880.00;;;;4976792;28;108105;-69
2022/04/29 06:59:32;;;;;;;4.33;2.93;;;13.00;97.30;13.30;101887.00;;;;4972887;28;90494;-69
2022/04/29 07:01:58;;;;;;;3.83;3.43;;;13.10;96.90;13.50;101876.00;;;;4988707;28;118341;-68
2022/04/29 07:04:28;;;;;;;5.20;4.07;;;13.40;96.50;13.80;101886.00;;;;4996731;28;87839;-69
2022/04/29 07:06:56;;;;;;;7.33;2.73;;;13.60;95.70;14.10;101877.00;;;;4994521;28;87761;-69
2022/04/29 07:09:23;;;;;;;4.70;2.87;;;14.00;95.30;14.50;101875.00;;;;4996304;28;88007;-69
2022/04/29 07:11:49;;;;;;;4.33;3.40;;;14.40;94.40;14.90;101878.00;;;;4982747;28;88554;-69
2022/04/29 07:14:15;;;;;;;7.23;3.47;;;14.70;93.20;15.30;101874.00;;;;4990934;28;94123;-68
2022/04/29 07:16:40;;;;;;;4.18;3.03;;;15.10;92.20;15.80;101877.00;;;;4975538;28;108789;-69
2022/04/29 07:19:06;;;;;;;6.38;3.67;;;15.50;91.10;16.20;101878.00;;;;4975194;28;117948;-69
2022/04/29 07:21:32;;;;;;;4.90;3.05;;;15.90;89.50;16.60;101883.00;;;;4984711;28;116919;-68
2022/04/29 07:23:59;;;;;;;11.27;3.63;;;16.30;87.10;17.00;101886.00;;;;4994555;28;110537;-69
2022/04/29 07:26:25;;;;;;;3.72;2.90;;;16.70;83.50;17.30;101877.00;;;;4996900;28;87698;-69
2022/04/29 07:28:50;;;;;;;4.20;3.60;;;17.10;79.30;17.60;101886.00;;;;4977758;28;90006;-69
2022/04/29 07:31:16;;;;;;;3.88;2.85;;;17.40;77.70;18.00;101891.00;;;;4981684;28;111791;-69
2022/04/29 07:33:42;;;;;;;4.60;3.88;;;17.70;75.40;18.20;101876.00;;;;4996000;28;89014;-69
2022/04/29 07:41:45;;;;;;;4.93;3.47;;;18.30;61.50;18.50;101879.00;;;;4984716;28;87477;-68
2022/04/29 07:44:12;;;;;;;3.88;2.45;;;18.40;60.40;18.60;101880.00;;;;4975803;28;87725;-68
2022/04/29 07:46:39;;;;;;;2.65;2.40;;;18.40;59.40;18.60;101876.00;;;;4976126;28;87661;-68
2022/04/29 07:49:05;;;;;;;10.82;2.67;;;18.50;58.50;18.70;101882.00;;;;4974662;28;90120;-68
2022/04/29 07:51:31;;;;;;;4.47;2.92;;;18.50;58.40;18.90;101887.00;;;;4976863;28;90025;-68
2022/04/29 07:53:57;;;;;;;3.30;3.00;;;18.60;58.60;19.00;101880.00;;;;4974904;28;92985;-68
2022/04/29 07:56:22;;;;;;;3.40;3.10;;;18.80;57.30;19.10;101874.00;;;;4974687;28;108652;-68
2022/04/29 07:58:48;;;;;;;3.33;2.28;;;18.90;56.90;19.10;101876.00;;;;4973726;28;117146;-68
2022/04/29 08:01:15;;;;;;;5.10;2.45;;;19.00;56.00;19.10;101871.00;;;;4980060;28;87763;-68
2022/04/29 08:03:42;;;;;;;2.92;2.00;;;19.00;55.00;19.10;101879.00;;;;4995367;28;87744;-68
2022/04/29 08:06:08;;;;;;;4.32;2.05;;;19.00;55.20;19.10;101880.00;;;;4993220;28;86933;-68
2022/04/29 08:08:35;;;;;;;4.28;2.50;;;19.00;54.80;19.10;101877.00;;;;4995156;28;89387;-69
2022/04/29 08:11:01;;;;;;;5.90;2.33;;;19.00;54.00;19.00;101881.00;;;;4989336;28;89089;-69
2022/04/29 08:13:33;;;;;;;2.75;2.13;;;18.90;54.00;19.00;101881.00;;;;4974836;28;88861;-68
2022/04/29 08:16:03;;;;;;;2.22;1.83;;;18.90;53.70;19.00;101883.00;;;;4975841;28;87549;-69
2022/04/29 08:18:29;;;;;;;2.45;1.85;;;18.80;53.70;18.90;101881.00;;;;4974649;28;88754;-69
2022/04/29 08:20:56;;;;;;;4.85;2.20;;;18.80;51.70;18.90;101884.00;;;;4991218;28;110844;-69
2022/04/29 08:23:22;;;;;;;1.77;1.52;;;18.70;52.20;18.90;101874.00;;;;4993350;28;87990;-69
2022/04/29 08:25:47;;;;;;;3.75;2.63;;;18.70;51.70;18.90;101871.00;;;;4994165;28;108371;-70
2022/04/29 08:28:13;;;;;;;2.78;1.75;;;18.70;51.50;19.00;101870.00;;;;4981149;28;118316;-69
2022/04/29 08:30:39;;;;;;;2.92;1.45;;;18.80;51.60;19.10;101875.00;;;;4985755;28;117777;-69
2022/04/29 08:33:05;;;;;;;5.57;1.83;;;18.90;51.70;19.30;101878.00;;;;4974445;28;109789;-69
2022/04/29 08:35:31;;;;;;;1.95;1.30;;;19.00;51.60;19.50;101874.00;;;;4975649;28;88030;-68
2022/04/29 08:37:57;;;;;;;2.30;1.63;;;19.20;50.60;19.60;101861.00;;;;4974056;28;89824;-68
2022/04/29 08:40:27;;;;;;;1.73;1.55;;;19.30;50.80;19.90;101864.00;;;;4990035;28;88044;-69
2022/04/29 08:42:56;;;;;;;3.25;2.08;;;19.50;50.70;20.10;101870.00;;;;4992205;28;87763;-69
2022/04/29 08:45:22;;;;;;;1.73;1.63;;;19.80;49.90;20.20;101856.00;;;;4997669;27;87715;-69
2022/04/29 08:47:48;;;;;;;2.45;1.67;;;19.90;49.10;20.30;101853.00;;;;4996570;28;112288;-69
2022/04/29 08:50:20;;;;;;;3.28;2.38;;;20.00;49.50;20.50;101861.00;;;;4998119;28;87752;-69
2022/04/29 08:52:49;;;;;;;2.88;1.83;;;20.20;49.40;20.70;101855.00;;;;4981655;28;87779;-70
2022/04/29 09:01:05;;;;;;;2.75;1.77;;;20.80;48.00;21.10;101855.00;;;;4976104;28;87941;-69
2022/04/29 09:03:31;;;;;;;3.80;2.28;;;20.90;47.70;21.20;101870.00;;;;4997891;28;88841;-70
2022/04/29 09:05:57;;;;;;;7.22;2.17;;;20.90;48.00;21.40;101852.00;;;;4994621;28;87823;-69
2022/04/29 09:08:23;;;;;;;2.22;1.55;;;21.10;48.00;21.60;101861.00;;;;4995699;28;104090;-69
2022/04/29 09:11:00;;;;;;;2.50;2.00;;;21.20;45.80;21.60;101859.00;;;;4997154;28;88438;-70
2022/04/29 09:13:27;;;;;;;2.95;2.05;;;21.30;45.80;21.80;101864.00;;;;4958443;28;87741;-70
2022/04/29 09:15:59;;;;;;;4.93;2.40;;;21.50;46.20;22.10;101864.00;;;;4958716;28;87711;-69
2022/04/29 09:18:35;;;;;;;2.22;1.75;;;21.70;46.20;22.50;101863.00;;;;4957783;28;89165;-69
2022/04/29 09:21:26;;;;;;;5.28;2.30;;;22.00;45.90;22.70;101858.00;;;;4972513;28;87183;-69
2022/04/29 09:24:10;;;;;;;1.42;1.13;;;22.30;45.30;23.10;101864.00;;;;4997962;28;87829;-70
2022/04/29 09:26:38;;;;;;;2.00;1.38;;;22.60;44.40;23.20;101857.00;;;;4999086;28;87840;-69
2022/04/29 09:29:23;;;;;;;2.58;1.50;;;22.80;43.40;23.40;101858.00;;;;4977370;28;89162;-69
2022/04/29 09:31:58;;;;;;;5.13;2.00;;;23.00;43.30;23.60;101847.00;;;;4984540;28;87949;-70
2022/04/29 09:34:54;;;;;;;4.18;1.42;;;23.20;42.70;23.80;101861.00;;;;4997612;28;88033;-69
2022/04/29 09:37:24;;;;;;;4.40;1.45;;;23.30;42.60;24.10;101857.00;;;;4995642;28;87873;-73
2022/04/29 09:40:10;;;;;;;2.22;1.55;;;23.60;41.90;24.30;101852.00;;;;4995516;28;87854;-74
2022/04/29 09:42:42;;;;;;;2.35;1.73;;;23.80;40.90;24.40;101851.00;;;;5011403;27;89164;-75
2022/04/29 09:45:24;;;;;;;2.00;1.42;;;24.00;37.00;24.10;101841.00;;;;4995629;28;88136;-75
2022/04/29 09:47:56;;;;;;;1.25;0.98;;;23.80;36.60;23.60;101847.00;;;;4997418;28;87049;-74
2022/04/29 09:50:22;;;;;;;3.35;1.42;;;23.40;37.60;23.60;101847.00;;;;4994962;28;87881;-75
2022/04/29 09:52:51;;;;;;;1.90;1.50;;;23.30;37.80;23.50;101850.00;;;;4976488;27;117828;-75
2022/04/29 09:55:19;;;;;;;1.00;0.90;;;23.20;38.30;23.30;101842.00;;;;4956278;28;88922;-73
2022/04/29 09:57:56;;;;;;;6.97;1.85;;;23.00;37.20;23.20;101841.00;;;;4956979;28;87693;-74
2022/04/29 10:00:23;;;;;;;2.55;1.73;;;22.90;37.60;23.20;101837.00;;;;4957523;28;88082;-73
2022/04/29 10:02:49;;;;;;;3.25;1.75;;;22.80;37.60;23.20;101832.00;;;;4988011;28;87886;-74
2022/04/29 10:05:16;;;;;;;1.92;1.70;;;22.80;37.80;23.10;101837.00;;;;4997229;28;87726;-74
2022/04/29 10:07:43;;;;;;;2.45;1.50;;;22.80;37.10;22.90;101828.00;;;;4995591;28;87766;-74
2022/04/29 10:10:10;;;;;;;1.63;1.27;;;22.60;37.10;22.70;101825.00;;;;4996389;28;107665;-74
2022/04/29 10:12:48;;;;;;;1.20;1.10;;;22.30;36.70;22.50;101829.00;;;;4982660;28;87811;-74
2022/04/29 10:15:17;;;;;;;4.78;1.75;;;22.10;37.30;22.40;101819.00;;;;4977110;28;87848;-74
2022/04/29 10:23:15;;;;;;;2.40;1.58;;;21.80;37.10;22.50;101822.00;;;;4992430;28;88591;-74
2022/04/29 10:25:46;;;;;;;2.78;0.93;;;21.90;37.20;22.80;101820.00;;;;4989451;28;97570;-75
2022/04/29 10:28:22;;;;;;;0.85;0.70;;;22.10;37.20;23.30;101812.00;;;;4978881;28;87820;-74
2022/04/29 10:31:01;;;;;;;1.70;1.60;;;22.50;36.00;23.50;101817.00;;;;4954095;28;90394;-74
2022/04/29 10:33:35;;;;;;;1.42;1.05;;;22.80;35.20;23.90;101805.00;;;;4963462;28;87968;-73
2022/04/29 10:36:10;;;;;;;0.82;0.73;;;23.10;34.80;24.20;101802.00;;;;4962657;28;87753;-75
2022/04/29 10:38:39;;;;;;;0.85;0.77;;;23.40;35.00;24.60;101806.00;;;;4984270;28;87314;-75
2022/04/29 10:41:25;;;;;;;0.75;0.70;;;23.80;35.00;25.00;101805.00;;;;4966408;28;87824;-75
2022/04/29 10:43:50;;;;;;;2.00;1.35;;;24.20;34.20;25.40;101804.00;;;;4984412;28;89647;-74
2022/04/29 10:46:31;;;;;;;2.17;1.10;;;24.60;33.60;25.40;101806.00;;;;4955982;28;88674;-73
2022/04/29 10:48:56;;;;;;;2.08;0.90;;;24.80;32.40;25.40;101806.00;;;;4971047;28;87820;-73
2022/04/29 10:51:25;;;;;;;1.23;1.13;;;24.70;32.70;25.40;101814.00;;;;4970512;28;90593;-74
2022/04/29 10:53:55;;;;;;;1.27;1.17;;;24.80;33.00;25.30;101803.00;;;;4966905;28;117435;-73
2022/04/29 10:56:26;;;;;;;1.73;0.88;;;24.80;32.80;25.20;101788.00;;;;4987026;28;87698;-74
2022/04/29 10:58:53;;;;;;;0.82;0.80;;;24.70;31.90;24.90;101799.00;;;;4976126;28;87793;-74
2022/04/29 11:01:28;;;;;;;0.30;0.30;;;24.50;29.90;24.80;101795.00;;;;4973843;28;88313;-73
2022/04/29 11:03:54;;;;;;;1.05;0.80;;;24.30;30.00;24.80;101796.00;;;;4978178;27;90282;-74
2022/04/29 11:06:20;;;;;;;3.63;0.50;;;24.30;31.10;24.90;101796.00;;;;4995032;28;110871;-74
2022/04/29 11:08:46;;;;;;;1.55;0.80;;;24.40;31.30;25.10;101787.00;;;;4994311;28;108908;-75
2022/04/29 11:11:12;;;;;;;0.95;0.40;;;24.50;30.90;25.40;101788.00;;;;4995157;28;88736;-73
2022/04/29 11:14:01;;;;;;;1.15;0.70;;;24.70;31.10;25.70;101787.00;;;;4989238;28;117918;-74
2022/04/29 11:16:52;;;;;;;0.45;0.43;;;25.00;30.40;26.00;101784.00;;;;4981919;28;87721;-74
2022/04/29 11:19:21;;;;;;;2.05;0.70;;;25.30;30.30;26.30;101785.00;;;;4989894;28;87913;-74
2022/04/29 11:24:46;;;;;;;1.05;0.60;;;25.80;30.10;26.70;101784.00;;;;4978516;28;87663;-75